sensor_id;sensor_type;location;lat;lon;timestamp;pressure;altitude;pressure_sealevel;temperature;humidity
54306;BME280;66145;45.188;5.712;2023-04-01T00:00:19;98837.91;;;19.85;46.64
54306;BME280;66145;45.188;5.712;2023-04-01T00:02:45;98910.84;;;20.25;46.88
54306;BME280;66145;45.188;5.712;2023-04-01T00:05:12;98915.06;;;20.22;46.86
54306;BME280;66145;45.188;5.712;2023-04-01T00:07:38;98913.47;;;20.21;46.83
54306;BME280;66145;45.188;5.712;2023-04-01T00:10:05;98909.09;;;20.20;46.94
54306;BME280;66145;45.188;5.712;2023-04-01T00:12:31;98917.63;;;20.27;46.80
54306;BME280;66145;45.188;5.712;2023-04-01T00:14:56;98917.78;;;20.31;46.66
54306;BME280;66145;45.188;5.712;2023-04-01T00:17:22;98834.38;;;19.84;46.74
54306;BME280;66145;45.188;5.712;2023-04-01T00:19:47;98824.44;;;19.71;46.78
54306;BME280;66145;45.188;5.712;2023-04-01T00:22:13;98859.66;;;19.99;46.79
54306;BME280;66145;45.188;5.712;2023-04-01T00:24:38;98916.94;;;20.30;46.74
54306;BME280;66145;45.188;5.712;2023-04-01T00:27:04;98924.06;;;20.31;46.59
54306;BME280;66145;45.188;5.712;2023-04-01T00:29:29;98897.03;;;20.12;46.83
54306;BME280;66145;45.188;5.712;2023-04-01T00:31:59;98917.47;;;20.24;46.95
54306;BME280;66145;45.188;5.712;2023-04-01T00:34:24;98911.97;;;20.24;46.66
54306;BME280;66145;45.188;5.712;2023-04-01T00:36:50;98910.84;;;20.25;47.00
54306;BME280;66145;45.188;5.712;2023-04-01T00:39:17;98916.03;;;20.26;47.04
54306;BME280;66145;45.188;5.712;2023-04-01T00:41:42;98848.41;;;19.83;46.89
54306;BME280;66145;45.188;5.712;2023-04-01T00:44:16;98915.69;;;20.28;46.94
54306;BME280;66145;45.188;5.712;2023-04-01T00:46:43;98921.00;;;20.33;46.82
54306;BME280;66145;45.188;5.712;2023-04-01T00:49:09;98889.88;;;20.20;46.66
54306;BME280;66145;45.188;5.712;2023-04-01T00:51:37;98898.72;;;20.26;46.91
54306;BME280;66145;45.188;5.712;2023-04-01T00:54:03;98899.69;;;20.30;46.70
54306;BME280;66145;45.188;5.712;2023-04-01T00:56:37;98915.38;;;20.29;46.83
54306;BME280;66145;45.188;5.712;2023-04-01T00:59:10;98896.81;;;20.26;46.84
54306;BME280;66145;45.188;5.712;2023-04-01T01:01:37;98873.16;;;20.13;46.67
54306;BME280;66145;45.188;5.712;2023-04-01T01:04:03;98901.09;;;20.36;46.87
54306;BME280;66145;45.188;5.712;2023-04-01T01:06:46;98848.94;;;20.06;46.78
54306;BME280;66145;45.188;5.712;2023-04-01T01:09:28;98883.19;;;20.30;46.58
54306;BME280;66145;45.188;5.712;2023-04-01T01:12:07;98898.47;;;20.40;46.39
54306;BME280;66145;45.188;5.712;2023-04-01T01:17:29;98902.44;;;20.51;46.34
54306;BME280;66145;45.188;5.712;2023-04-01T01:20:10;98893.34;;;20.59;46.39
54306;BME280;66145;45.188;5.712;2023-04-01T01:25:54;98901.22;;;20.61;46.47
54306;BME280;66145;45.188;5.712;2023-04-01T01:31:03;98893.41;;;20.72;46.19
54306;BME280;66145;45.188;5.712;2023-04-01T01:33:44;98895.16;;;20.76;46.23
54306;BME280;66145;45.188;5.712;2023-04-01T01:36:14;98869.41;;;20.60;46.19
54306;BME280;66145;45.188;5.712;2023-04-01T01:38:41;98887.72;;;20.77;46.30
54306;BME280;66145;45.188;5.712;2023-04-01T01:41:08;98892.88;;;20.78;46.37
54306;BME280;66145;45.188;5.712;2023-04-01T01:43:40;98889.31;;;20.78;46.21
54306;BME280;66145;45.188;5.712;2023-04-01T01:46:11;98869.53;;;20.63;46.26
54306;BME280;66145;45.188;5.712;2023-04-01T01:48:37;98883.38;;;20.76;46.47
54306;BME280;66145;45.188;5.712;2023-04-01T01:51:07;98851.19;;;20.55;46.66
54306;BME280;66145;45.188;5.712;2023-04-01T01:53:33;98876.75;;;20.77;46.53
54306;BME280;66145;45.188;5.712;2023-04-01T01:55:58;98874.31;;;20.75;46.53
54306;BME280;66145;45.188;5.712;2023-04-01T01:58:57;98878.94;;;20.84;46.51
54306;BME280;66145;45.188;5.712;2023-04-01T02:01:28;98853.66;;;20.69;46.22
54306;BME280;66145;45.188;5.712;2023-04-01T02:03:55;98872.06;;;20.90;46.22
54306;BME280;66145;45.188;5.712;2023-04-01T02:06:27;98871.84;;;20.83;46.26
54306;BME280;66145;45.188;5.712;2023-04-01T02:09:02;98877.44;;;20.86;46.21
54306;BME280;66145;45.188;5.712;2023-04-01T02:11:40;98858.47;;;20.72;46.54
54306;BME280;66145;45.188;5.712;2023-04-01T02:14:16;98876.03;;;20.80;46.42
54306;BME280;66145;45.188;5.712;2023-04-01T02:17:13;98877.34;;;20.83;46.20
54306;BME280;66145;45.188;5.712;2023-04-01T02:20:04;98874.31;;;20.75;46.39
54306;BME280;66145;45.188;5.712;2023-04-01T02:22:32;98879.38;;;20.86;46.28
54306;BME280;66145;45.188;5.712;2023-04-01T02:25:07;98843.81;;;20.68;46.46
54306;BME280;66145;45.188;5.712;2023-04-01T02:27:34;98880.19;;;20.86;46.14
54306;BME280;66145;45.188;5.712;2023-04-01T02:29:59;98885.50;;;20.91;46.28
54306;BME280;66145;45.188;5.712;2023-04-01T02:32:27;98889.50;;;20.94;46.29
54306;BME280;66145;45.188;5.712;2023-04-01T02:34:54;98873.22;;;20.89;46.37
54306;BME280;66145;45.188;5.712;2023-04-01T02:37:20;98823.50;;;20.60;46.65
54306;BME280;66145;45.188;5.712;2023-04-01T02:39:46;98870.16;;;20.90;46.43
54306;BME280;66145;45.188;5.712;2023-04-01T02:42:13;98860.13;;;20.86;46.54
54306;BME280;66145;45.188;5.712;2023-04-01T02:44:38;98856.41;;;20.90;46.19
54306;BME280;66145;45.188;5.712;2023-04-01T02:47:04;98865.78;;;20.89;46.54
54306;BME280;66145;45.188;5.712;2023-04-01T02:49:29;98867.41;;;20.90;46.43
54306;BME280;66145;45.188;5.712;2023-04-01T02:51:54;98857.84;;;20.88;46.37
54306;BME280;66145;45.188;5.712;2023-04-01T02:54:20;98861.66;;;20.95;46.41
54306;BME280;66145;45.188;5.712;2023-04-01T02:56:45;98831.16;;;20.76;46.53
54306;BME280;66145;45.188;5.712;2023-04-01T02:59:11;98868.31;;;20.94;46.43
54306;BME280;66145;45.188;5.712;2023-04-01T03:01:36;98828.09;;;20.69;46.06
54306;BME280;66145;45.188;5.712;2023-04-01T03:04:02;98870.72;;;20.96;46.27
54306;BME280;66145;45.188;5.712;2023-04-01T03:06:28;98866.25;;;20.91;46.36
54306;BME280;66145;45.188;5.712;2023-04-01T03:08:53;98873.38;;;20.92;46.30
54306;BME280;66145;45.188;5.712;2023-04-01T03:11:18;98875.75;;;20.94;46.45
54306;BME280;66145;45.188;5.712;2023-04-01T03:13:43;98846.94;;;20.79;46.47
54306;BME280;66145;45.188;5.712;2023-04-01T03:16:09;98837.09;;;20.78;46.41
54306;BME280;66145;45.188;5.712;2023-04-01T03:18:34;98857.31;;;20.94;46.40
54306;BME280;66145;45.188;5.712;2023-04-01T03:21:21;98833.91;;;20.76;46.46
54306;BME280;66145;45.188;5.712;2023-04-01T03:23:46;98830.34;;;20.75;46.24
54306;BME280;66145;45.188;5.712;2023-04-01T03:26:12;98834.69;;;20.76;46.53
54306;BME280;66145;45.188;5.712;2023-04-01T03:28:38;98846.06;;;20.87;46.48
54306;BME280;66145;45.188;5.712;2023-04-01T03:31:03;98825.47;;;20.72;46.46
54306;BME280;66145;45.188;5.712;2023-04-01T03:33:30;98849.97;;;20.86;46.56
54306;BME280;66145;45.188;5.712;2023-04-01T03:35:55;98846.53;;;20.89;46.32
54306;BME280;66145;45.188;5.712;2023-04-01T03:38:21;98824.03;;;20.75;46.37
54306;BME280;66145;45.188;5.712;2023-04-01T03:40:46;98822.56;;;20.77;46.34
54306;BME280;66145;45.188;5.712;2023-04-01T03:43:11;98839.25;;;20.93;46.33
54306;BME280;66145;45.188;5.712;2023-04-01T03:45:44;98789.63;;;20.69;46.43
54306;BME280;66145;45.188;5.712;2023-04-01T03:48:10;98842.09;;;20.97;46.41
54306;BME280;66145;45.188;5.712;2023-04-01T03:50:35;98836.34;;;20.90;46.49
54306;BME280;66145;45.188;5.712;2023-04-01T03:53:00;98816.72;;;20.79;46.75
54306;BME280;66145;45.188;5.712;2023-04-01T03:55:25;98822.47;;;20.86;46.82
54306;BME280;66145;45.188;5.712;2023-04-01T03:57:51;98810.91;;;20.80;46.94
54306;BME280;66145;45.188;5.712;2023-04-01T04:00:16;98790.78;;;20.67;46.73
54306;BME280;66145;45.188;5.712;2023-04-01T04:02:42;98820.75;;;20.81;46.73
54306;BME280;66145;45.188;5.712;2023-04-01T04:05:07;98827.41;;;20.93;46.58
54306;BME280;66145;45.188;5.712;2023-04-01T04:07:34;98780.81;;;20.63;46.45
54306;BME280;66145;45.188;5.712;2023-04-01T04:10:00;98803.44;;;20.81;46.36
54306;BME280;66145;45.188;5.712;2023-04-01T04:12:26;98825.50;;;20.93;46.47
54306;BME280;66145;45.188;5.712;2023-04-01T04:14:51;98828.69;;;20.95;46.46
54306;BME280;66145;45.188;5.712;2023-04-01T04:17:16;98795.72;;;20.74;46.60
54306;BME280;66145;45.188;5.712;2023-04-01T04:19:42;98836.81;;;20.92;46.65
54306;BME280;66145;45.188;5.712;2023-04-01T04:22:08;98799.59;;;20.73;46.60
54306;BME280;66145;45.188;5.712;2023-04-01T04:24:36;98814.13;;;20.83;46.83
54306;BME280;66145;45.188;5.712;2023-04-01T04:27:03;98832.66;;;20.86;46.59
54306;BME280;66145;45.188;5.712;2023-04-01T04:29:29;98791.75;;;20.50;46.49
54306;BME280;66145;45.188;5.712;2023-04-01T04:31:54;98814.31;;;20.77;46.87
54306;BME280;66145;45.188;5.712;2023-04-01T04:34:20;98838.41;;;20.93;46.62
54306;BME280;66145;45.188;5.712;2023-04-01T04:36:47;98807.81;;;20.82;46.58
54306;BME280;66145;45.188;5.712;2023-04-01T04:39:12;98808.38;;;20.88;46.59
54306;BME280;66145;45.188;5.712;2023-04-01T04:41:38;98802.78;;;20.84;46.61
54306;BME280;66145;45.188;5.712;2023-04-01T04:44:04;98828.56;;;20.92;46.45
54306;BME280;66145;45.188;5.712;2023-04-01T04:46:29;98809.59;;;20.78;46.51
54306;BME280;66145;45.188;5.712;2023-04-01T04:48:55;98778.16;;;20.54;46.48
54306;BME280;66145;45.188;5.712;2023-04-01T04:51:21;98844.25;;;20.91;46.80
54306;BME280;66145;45.188;5.712;2023-04-01T04:53:47;98837.56;;;20.80;46.79
54306;BME280;66145;45.188;5.712;2023-04-01T04:56:12;98821.28;;;20.75;46.69
54306;BME280;66145;45.188;5.712;2023-04-01T04:58:39;98843.91;;;20.93;46.58
54306;BME280;66145;45.188;5.712;2023-04-01T05:01:12;98818.19;;;20.76;46.48
54306;BME280;66145;45.188;5.712;2023-04-01T05:03:38;98834.88;;;20.92;46.65
54306;BME280;66145;45.188;5.712;2023-04-01T05:06:04;98770.50;;;20.60;46.37
54306;BME280;66145;45.188;5.712;2023-04-01T05:08:29;98833.84;;;20.97;46.54
54306;BME280;66145;45.188;5.712;2023-04-01T05:10:55;98825.03;;;20.91;46.65
54306;BME280;66145;45.188;5.712;2023-04-01T05:13:20;98836.59;;;20.97;46.67
54306;BME280;66145;45.188;5.712;2023-04-01T05:15:46;98799.28;;;20.75;46.54
54306;BME280;66145;45.188;5.712;2023-04-01T05:18:11;98817.31;;;20.85;46.63
54306;BME280;66145;45.188;5.712;2023-04-01T05:20:36;98800.28;;;20.70;46.85
54306;BME280;66145;45.188;5.712;2023-04-01T05:23:02;98826.94;;;20.91;46.68
54306;BME280;66145;45.188;5.712;2023-04-01T05:25:27;98790.22;;;20.74;46.60
54306;BME280;66145;45.188;5.712;2023-04-01T05:27:53;98784.34;;;20.63;46.35
54306;BME280;66145;45.188;5.712;2023-04-01T05:30:18;98824.31;;;20.94;46.63
54306;BME280;66145;45.188;5.712;2023-04-01T05:32:44;98823.78;;;21.01;46.47
54306;BME280;66145;45.188;5.712;2023-04-01T05:35:10;98840.41;;;21.05;46.33
54306;BME280;66145;45.188;5.712;2023-04-01T05:37:36;98825.03;;;20.91;46.38
54306;BME280;66145;45.188;5.712;2023-04-01T05:40:02;98825.03;;;20.91;46.47
54306;BME280;66145;45.188;5.712;2023-04-01T05:42:28;98846.78;;;20.96;46.54
54306;BME280;66145;45.188;5.712;2023-04-01T05:44:54;98832.88;;;20.80;46.49
54306;BME280;66145;45.188;5.712;2023-04-01T05:47:20;98823.81;;;20.80;46.42
54306;BME280;66145;45.188;5.712;2023-04-01T05:49:46;98861.09;;;20.90;46.71
54306;BME280;66145;45.188;5.712;2023-04-01T05:52:11;98840.31;;;20.80;46.51
54306;BME280;66145;45.188;5.712;2023-04-01T05:54:36;98843.06;;;20.80;46.66
54306;BME280;66145;45.188;5.712;2023-04-01T05:57:02;98784.78;;;20.53;46.42
54306;BME280;66145;45.188;5.712;2023-04-01T05:59:27;98856.72;;;20.89;46.29
54306;BME280;66145;45.188;5.712;2023-04-01T06:01:53;98882.66;;;21.00;46.41
54306;BME280;66145;45.188;5.712;2023-04-01T06:04:19;98875.22;;;21.01;46.27
54306;BME280;66145;45.188;5.712;2023-04-01T06:06:45;98841.13;;;20.80;46.46
54306;BME280;66145;45.188;5.712;2023-04-01T06:12:05;98875.88;;;20.97;46.31
54306;BME280;66145;45.188;5.712;2023-04-01T06:22:45;98864.56;;;20.78;46.47
54306;BME280;66145;45.188;5.712;2023-04-01T06:25:28;98838.03;;;20.61;46.36
54306;BME280;66145;45.188;5.712;2023-04-01T06:33:58;98909.09;;;20.92;45.88
54306;BME280;66145;45.188;5.712;2023-04-01T06:39:35;98907.53;;;21.04;45.67
54306;BME280;66145;45.188;5.712;2023-04-01T06:48:16;98882.47;;;20.84;45.94
54306;BME280;66145;45.188;5.712;2023-04-01T06:57:49;98833.69;;;20.60;45.72
54306;BME280;66145;45.188;5.712;2023-04-01T07:00:30;98906.16;;;21.10;45.76
54306;BME280;66145;45.188;5.712;2023-04-01T07:05:42;98899.84;;;20.97;45.77
54306;BME280;66145;45.188;5.712;2023-04-01T07:08:16;98927.84;;;21.11;45.71
54306;BME280;66145;45.188;5.712;2023-04-01T07:10:50;98936.41;;;21.10;45.77
54306;BME280;66145;45.188;5.712;2023-04-01T07:18:34;98902.22;;;20.99;45.91
54306;BME280;66145;45.188;5.712;2023-04-01T07:21:02;98864.13;;;20.76;45.98
54306;BME280;66145;45.188;5.712;2023-04-01T07:23:42;98905.25;;;21.06;45.64
54306;BME280;66145;45.188;5.712;2023-04-01T07:26:21;98923.41;;;21.19;45.44
54306;BME280;66145;45.188;5.712;2023-04-01T07:28:48;98896.06;;;21.02;45.80
54306;BME280;66145;45.188;5.712;2023-04-01T07:34:25;98924.75;;;21.13;45.84
54306;BME280;66145;45.188;5.712;2023-04-01T07:39:36;98934.94;;;21.12;46.14
54306;BME280;66145;45.188;5.712;2023-04-01T07:42:24;98921.88;;;21.09;45.98
54306;BME280;66145;45.188;5.712;2023-04-01T07:58:44;98883.34;;;20.97;45.78
54306;BME280;66145;45.188;5.712;2023-04-01T08:06:55;98922.06;;;21.04;46.17
54306;BME280;66145;45.188;5.712;2023-04-01T08:09:54;98934.69;;;21.05;46.37
54306;BME280;66145;45.188;5.712;2023-04-01T08:12:55;98864.72;;;20.60;46.30
54306;BME280;66145;45.188;5.712;2023-04-01T08:15:41;98923.28;;;20.94;46.25
54306;BME280;66145;45.188;5.712;2023-04-01T08:18:51;98940.44;;;21.12;45.91
54306;BME280;66145;45.188;5.712;2023-04-01T08:21:30;98953.19;;;21.17;45.86
54306;BME280;66145;45.188;5.712;2023-04-01T08:24:00;98901.25;;;20.82;45.70
54306;BME280;66145;45.188;5.712;2023-04-01T08:26:36;98963.63;;;21.24;45.93
54306;BME280;66145;45.188;5.712;2023-04-01T08:29:23;98969.13;;;21.24;45.93
54306;BME280;66145;45.188;5.712;2023-04-01T08:34:36;98955.59;;;21.19;45.97
54306;BME280;66145;45.188;5.712;2023-04-01T08:37:14;98951.69;;;21.20;46.06
54306;BME280;66145;45.188;5.712;2023-04-01T08:39:46;98925.16;;;21.03;46.20
54306;BME280;66145;45.188;5.712;2023-04-01T08:59:39;98947.72;;;20.96;46.43
54306;BME280;66145;45.188;5.712;2023-04-01T09:18:48;98931.75;;;20.68;45.85
54306;BME280;66145;45.188;5.712;2023-04-01T09:21:46;98934.03;;;20.66;45.87
54306;BME280;66145;45.188;5.712;2023-04-01T09:27:27;98924.81;;;20.62;45.85
54306;BME280;66145;45.188;5.712;2023-04-01T09:35:46;98912.69;;;20.63;45.48
54306;BME280;66145;45.188;5.712;2023-04-01T09:51:29;98903.97;;;20.40;46.06
54306;BME280;66145;45.188;5.712;2023-04-01T10:02:01;98888.22;;;20.49;45.59
54306;BME280;66145;45.188;5.712;2023-04-01T10:05:19;98907.81;;;20.69;45.38
54306;BME280;66145;45.188;5.712;2023-04-01T10:10:28;98891.19;;;20.65;45.42
54306;BME280;66145;45.188;5.712;2023-04-01T10:13:25;98890.59;;;20.59;45.65
54306;BME280;66145;45.188;5.712;2023-04-01T10:21:37;98878.31;;;20.57;45.81
54306;BME280;66145;45.188;5.712;2023-04-01T10:24:12;98877.66;;;20.60;45.73
54306;BME280;66145;45.188;5.712;2023-04-01T10:30:23;98869.09;;;20.61;45.59
54306;BME280;66145;45.188;5.712;2023-04-01T10:55:28;98847.78;;;20.58;45.83
54306;BME280;66145;45.188;5.712;2023-04-01T11:23:23;98829.22;;;20.34;46.54
54306;BME280;66145;45.188;5.712;2023-04-01T11:42:28;98833.28;;;20.28;46.15
54306;BME280;66145;45.188;5.712;2023-04-01T11:45:08;98828.28;;;20.30;45.93
54306;BME280;66145;45.188;5.712;2023-04-01T11:56:10;98814.81;;;20.37;45.93
54306;BME280;66145;45.188;5.712;2023-04-01T11:58:48;98813.53;;;20.34;46.07
54306;BME280;66145;45.188;5.712;2023-04-01T12:04:16;98791.31;;;20.27;46.50
54306;BME280;66145;45.188;5.712;2023-04-01T12:06:53;98788.88;;;20.26;46.38
54306;BME280;66145;45.188;5.712;2023-04-01T12:18:05;98759.41;;;20.35;46.39
54306;BME280;66145;45.188;5.712;2023-04-01T12:20:49;98743.72;;;20.35;46.23
54306;BME280;66145;45.188;5.712;2023-04-01T12:26:06;98712.53;;;20.19;46.50
54306;BME280;66145;45.188;5.712;2023-04-01T12:29:03;98731.38;;;20.29;46.57
54306;BME280;66145;45.188;5.712;2023-04-01T12:42:59;98676.53;;;19.99;46.60
54306;BME280;66145;45.188;5.712;2023-04-01T12:51:36;98695.19;;;20.27;46.29
54306;BME280;66145;45.188;5.712;2023-04-01T13:11:33;98660.72;;;20.17;46.13
54306;BME280;66145;45.188;5.712;2023-04-01T13:19:39;98638.53;;;20.23;46.21
54306;BME280;66145;45.188;5.712;2023-04-01T13:22:20;98634.97;;;20.22;46.11
54306;BME280;66145;45.188;5.712;2023-04-01T13:25:06;98629.38;;;20.18;46.16
54306;BME280;66145;45.188;5.712;2023-04-01T13:27:40;98625.03;;;20.17;46.35
54306;BME280;66145;45.188;5.712;2023-04-01T13:30:23;98612.75;;;20.15;46.34
54306;BME280;66145;45.188;5.712;2023-04-01T13:35:39;98577.94;;;19.94;46.35
54306;BME280;66145;45.188;5.712;2023-04-01T13:41:01;98581.31;;;20.12;46.47
54306;BME280;66145;45.188;5.712;2023-04-01T13:43:35;98580.28;;;20.17;46.44
54306;BME280;66145;45.188;5.712;2023-04-01T14:02:46;98577.78;;;20.12;46.66
54306;BME280;66145;45.188;5.712;2023-04-01T14:10:31;98583.59;;;20.10;46.45
54306;BME280;66145;45.188;5.712;2023-04-01T14:15:46;98549.22;;;19.91;46.51
54306;BME280;66145;45.188;5.712;2023-04-01T14:24:01;98552.09;;;19.95;46.33
54306;BME280;66145;45.188;5.712;2023-04-01T14:27:00;98579.22;;;20.09;46.58
54306;BME280;66145;45.188;5.712;2023-04-01T14:41:06;98594.34;;;20.03;46.55
54306;BME280;66145;45.188;5.712;2023-04-01T14:49:23;98579.28;;;19.88;46.45
54306;BME280;66145;45.188;5.712;2023-04-01T14:51:55;98587.84;;;19.86;46.34
54306;BME280;66145;45.188;5.712;2023-04-01T14:54:33;98509.22;;;19.36;46.46
54306;BME280;66145;45.188;5.712;2023-04-01T14:57:16;98602.84;;;19.89;46.67
54306;BME280;66145;45.188;5.712;2023-04-01T14:59:51;98620.09;;;19.89;46.50
54306;BME280;66145;45.188;5.712;2023-04-01T15:08:11;98625.50;;;19.98;46.38
54306;BME280;66145;45.188;5.712;2023-04-01T15:11:04;98626.22;;;19.95;46.43
54306;BME280;66145;45.188;5.712;2023-04-01T15:16:25;98626.22;;;19.95;46.60
54306;BME280;66145;45.188;5.712;2023-04-01T15:21:43;98640.72;;;19.96;46.32
54306;BME280;66145;45.188;5.712;2023-04-01T15:32:49;98647.56;;;19.89;46.49
54306;BME280;66145;45.188;5.712;2023-04-01T15:38:05;98588.47;;;19.71;46.57
54306;BME280;66145;45.188;5.712;2023-04-01T15:43:31;98641.63;;;19.87;46.62
54306;BME280;66145;45.188;5.712;2023-04-01T15:51:31;98593.50;;;19.69;46.71
54306;BME280;66145;45.188;5.712;2023-04-01T15:57:11;98614.81;;;19.84;46.85
54306;BME280;66145;45.188;5.712;2023-04-01T16:02:48;98621.31;;;19.80;46.92
54306;BME280;66145;45.188;5.712;2023-04-01T16:05:33;98592.91;;;19.63;46.89
54306;BME280;66145;45.188;5.712;2023-04-01T16:08:37;98628.41;;;19.81;46.71
54306;BME280;66145;45.188;5.712;2023-04-01T16:11:17;98613.47;;;19.69;46.87
54306;BME280;66145;45.188;5.712;2023-04-01T16:24:41;98646.47;;;19.60;46.83
54306;BME280;66145;45.188;5.712;2023-04-01T16:27:18;98664.59;;;19.74;46.89
54306;BME280;66145;45.188;5.712;2023-04-01T16:29:53;98688.31;;;19.79;46.83
54306;BME280;66145;45.188;5.712;2023-04-01T16:37:36;98658.25;;;19.61;47.00
54306;BME280;66145;45.188;5.712;2023-04-01T16:42:51;98667.34;;;19.74;46.86
54306;BME280;66145;45.188;5.712;2023-04-01T16:45:25;98675.72;;;19.78;47.11
54306;BME280;66145;45.188;5.712;2023-04-01T16:47:59;98646.47;;;19.60;46.82
54306;BME280;66145;45.188;5.712;2023-04-01T16:55:52;98650.69;;;19.58;46.78
54306;BME280;66145;45.188;5.712;2023-04-01T16:58:24;98668.50;;;19.73;46.65
54306;BME280;66145;45.188;5.712;2023-04-01T17:01:00;98672.72;;;19.70;46.67
54306;BME280;66145;45.188;5.712;2023-04-01T17:03:35;98641.53;;;19.54;46.99
54306;BME280;66145;45.188;5.712;2023-04-01T17:09:01;98671.38;;;19.76;46.73
54306;BME280;66145;45.188;5.712;2023-04-01T17:20:14;98670.78;;;19.71;46.69
54306;BME280;66145;45.188;5.712;2023-04-01T17:23:14;98669.97;;;19.70;46.62
54306;BME280;66145;45.188;5.712;2023-04-01T17:34:21;98628.34;;;19.47;46.66
54306;BME280;66145;45.188;5.712;2023-04-01T17:50:47;98629.94;;;19.27;46.57
54306;BME280;66145;45.188;5.712;2023-04-01T17:53:36;98683.31;;;19.81;46.27
54306;BME280;66145;45.188;5.712;2023-04-01T17:58:59;98689.00;;;19.97;45.97
54306;BME280;66145;45.188;5.712;2023-04-01T18:05:03;98703.72;;;20.13;45.71
54306;BME280;66145;45.188;5.712;2023-04-01T18:10:41;98624.94;;;19.71;45.59
54306;BME280;66145;45.188;5.712;2023-04-01T18:19:02;98738.78;;;20.29;45.39
54306;BME280;66145;45.188;5.712;2023-04-01T18:21:46;98686.72;;;19.99;45.30
54306;BME280;66145;45.188;5.712;2023-04-01T18:26:49;98713.75;;;20.09;45.68
54306;BME280;66145;45.188;5.712;2023-04-01T18:31:51;98723.72;;;20.14;45.67
54306;BME280;66145;45.188;5.712;2023-04-01T18:34:55;98751.97;;;20.35;45.52
54306;BME280;66145;45.188;5.712;2023-04-01T18:40:06;98758.19;;;20.45;45.45
54306;BME280;66145;45.188;5.712;2023-04-01T18:45:53;98721.03;;;20.26;45.43
54306;BME280;66145;45.188;5.712;2023-04-01T18:48:43;98746.41;;;20.44;45.44
54306;BME280;66145;45.188;5.712;2023-04-01T18:51:20;98751.31;;;20.39;45.50
54306;BME280;66145;45.188;5.712;2023-04-01T18:53:56;98751.66;;;20.37;45.67
54306;BME280;66145;45.188;5.712;2023-04-01T18:56:27;98755.97;;;20.38;45.58
54306;BME280;66145;45.188;5.712;2023-04-01T18:59:06;98733.16;;;20.25;45.43
54306;BME280;66145;45.188;5.712;2023-04-01T19:01:47;98757.03;;;20.46;45.47
54306;BME280;66145;45.188;5.712;2023-04-01T19:04:23;98762.69;;;20.49;45.35
54306;BME280;66145;45.188;5.712;2023-04-01T19:06:56;98763.47;;;20.50;45.33
54306;BME280;66145;45.188;5.712;2023-04-01T19:09:32;98762.78;;;20.53;45.27
54306;BME280;66145;45.188;5.712;2023-04-01T19:12:56;98762.78;;;20.53;45.13
54306;BME280;66145;45.188;5.712;2023-04-01T19:15:35;98743.25;;;20.33;45.41
54306;BME280;66145;45.188;5.712;2023-04-01T19:18:41;98771.59;;;20.46;45.66
54306;BME280;66145;45.188;5.712;2023-04-01T19:21:29;98775.66;;;20.40;45.77
54306;BME280;66145;45.188;5.712;2023-04-01T19:27:07;98776.25;;;20.46;45.71
54306;BME280;66145;45.188;5.712;2023-04-01T19:30:13;98785.13;;;20.51;45.44
54306;BME280;66145;45.188;5.712;2023-04-01T19:33:29;98782.81;;;20.54;45.56
54306;BME280;66145;45.188;5.712;2023-04-01T19:38:30;98765.06;;;20.51;45.47
54306;BME280;66145;45.188;5.712;2023-04-01T19:41:31;98779.75;;;20.55;45.49
54306;BME280;66145;45.188;5.712;2023-04-01T19:44:21;98777.31;;;20.54;45.55
54306;BME280;66145;45.188;5.712;2023-04-01T19:47:06;98786.59;;;20.49;45.62
54306;BME280;66145;45.188;5.712;2023-04-01T19:49:46;98784.66;;;20.49;45.78
54306;BME280;66145;45.188;5.712;2023-04-01T19:52:36;98768.13;;;20.37;45.66
54306;BME280;66145;45.188;5.712;2023-04-01T19:56:22;98790.28;;;20.53;45.70
54306;BME280;66145;45.188;5.712;2023-04-01T19:58:33;98790.06;;;20.58;45.72
54306;BME280;66145;45.188;5.712;2023-04-01T20:01:03;98783.75;;;20.58;45.59
54306;BME280;66145;45.188;5.712;2023-04-01T20:03:48;98761.16;;;20.40;45.44
54306;BME280;66145;45.188;5.712;2023-04-01T20:06:33;98790.97;;;20.62;45.61
54306;BME280;66145;45.188;5.712;2023-04-01T20:12:04;98789.72;;;20.60;45.59
54306;BME280;66145;45.188;5.712;2023-04-01T20:14:49;98783.28;;;20.56;45.84
54306;BME280;66145;45.188;5.712;2023-04-01T20:19:57;98783.75;;;20.58;45.63
54306;BME280;66145;45.188;5.712;2023-04-01T20:28:01;98776.44;;;20.62;45.41
54306;BME280;66145;45.188;5.712;2023-04-01T20:36:25;98751.22;;;20.47;45.44
54306;BME280;66145;45.188;5.712;2023-04-01T20:44:37;98770.69;;;20.55;45.69
54306;BME280;66145;45.188;5.712;2023-04-01T20:50:00;98753.50;;;20.45;45.36
54306;BME280;66145;45.188;5.712;2023-04-01T20:52:38;98770.59;;;20.63;45.40
54306;BME280;66145;45.188;5.712;2023-04-01T20:58:04;98770.88;;;20.71;45.24
54306;BME280;66145;45.188;5.712;2023-04-01T21:00:45;98753.53;;;20.58;45.29
54306;BME280;66145;45.188;5.712;2023-04-01T21:03:34;98739.09;;;20.48;45.49
54306;BME280;66145;45.188;5.712;2023-04-01T21:06:33;98717.28;;;20.31;45.50
54306;BME280;66145;45.188;5.712;2023-04-01T21:12:12;98750.63;;;20.42;45.60
54306;BME280;66145;45.188;5.712;2023-04-01T21:17:53;98764.66;;;20.61;45.43
54306;BME280;66145;45.188;5.712;2023-04-01T21:20:33;98773.16;;;20.69;45.47
54306;BME280;66145;45.188;5.712;2023-04-01T21:28:48;98773.97;;;20.69;45.38
54306;BME280;66145;45.188;5.712;2023-04-01T21:31:22;98774.28;;;20.67;45.50
54306;BME280;66145;45.188;5.712;2023-04-01T21:36:35;98765.09;;;20.63;45.33
54306;BME280;66145;45.188;5.712;2023-04-01T21:39:32;98756.75;;;20.60;45.46
54306;BME280;66145;45.188;5.712;2023-04-01T21:47:35;98768.59;;;20.73;45.16
54306;BME280;66145;45.188;5.712;2023-04-01T22:18:20;98736.63;;;20.68;45.31
54306;BME280;66145;45.188;5.712;2023-04-01T22:20:59;98662.91;;;20.24;45.22
54306;BME280;66145;45.188;5.712;2023-04-01T22:24:09;98749.22;;;20.69;45.36
54306;BME280;66145;45.188;5.712;2023-04-01T22:26:50;98723.88;;;20.51;45.20
54306;BME280;66145;45.188;5.712;2023-04-01T22:32:11;98726.03;;;20.45;45.59
54306;BME280;66145;45.188;5.712;2023-04-01T22:34:49;98758.72;;;20.59;45.63